Time;durP1;ratioP1;P1;durP2;ratioP2;P2;SDS_P1;SDS_P2;PMS_P1;PMS_P2;Temp;Humidity;BMP_temperature;BMP_pressure;BME280_temperature;BME280_humidity;BME280_pressure;Samples;Min_cycle;Max_cycle;Signal;HPM_P1;HPM_P2
2021/01/01 00:01:47;;;;;;;142.43;91.20;;;;;;;-140.05;100.00;61859.38;5031159;28;20436;-66
2021/01/01 00:04:14;;;;;;;102.23;60.67;;;;;;;-140.05;100.00;61859.38;5030155;28;20456;-64
2021/01/01 00:06:46;;;;;;;83.47;48.88;;;;;;;-140.05;100.00;61859.38;5029157;28;20455;-62
2021/01/01 00:09:14;;;;;;;81.43;47.85;;;;;;;-140.05;100.00;61859.38;5030371;28;20193;-65
2021/01/01 00:11:40;;;;;;;75.85;45.08;;;;;;;-140.05;100.00;61859.38;5029588;28;20236;-64
2021/01/01 00:14:08;;;;;;;81.67;47.57;;;;;;;-140.05;100.00;61859.38;5032189;28;20209;-64
2021/01/01 00:16:34;;;;;;;78.50;46.00;;;;;;;-140.05;100.00;61859.38;5029489;28;20444;-66
2021/01/01 00:19:01;;;;;;;77.70;45.70;;;;;;;-140.05;100.00;61859.38;5025365;28;20444;-65
2021/01/01 00:21:31;;;;;;;76.07;45.27;;;;;;;-140.05;100.00;61859.38;5031122;28;20863;-63
2021/01/01 00:23:59;;;;;;;75.03;44.00;;;;;;;-140.05;100.00;61859.38;5029903;28;20458;-65
2021/01/01 00:26:26;;;;;;;74.10;44.33;;;;;;;-140.05;100.00;61859.38;5030224;28;20232;-68
2021/01/01 00:28:53;;;;;;;71.27;43.80;;;;;;;-140.05;100.00;61859.38;5030173;28;20523;-64
2021/01/01 00:31:24;;;;;;;75.83;44.53;;;;;;;-140.05;100.00;61859.38;5031000;28;20534;-68
2021/01/01 00:33:52;;;;;;;76.40;44.57;;;;;;;-140.05;100.00;61859.38;5030894;28;20533;-65
2021/01/01 00:36:20;;;;;;;72.00;42.27;;;;;;;-140.05;100.00;61859.38;5031813;28;20450;-63
2021/01/01 00:38:52;;;;;;;67.75;41.13;;;;;;;-140.05;100.00;61859.38;5030480;28;20480;-64
2021/01/01 00:41:24;;;;;;;124.35;80.72;;;;;;;-140.05;100.00;61859.38;5031904;28;20193;-66
2021/01/01 00:43:53;;;;;;;207.07;142.70;;;;;;;-140.05;100.00;61859.38;5030375;28;20209;-69
2021/01/01 00:46:21;;;;;;;67.77;38.47;;;;;;;-140.05;100.00;61859.38;5030015;28;20292;-63
2021/01/01 00:48:47;;;;;;;63.05;39.55;;;;;;;-140.05;100.00;61859.38;5029961;28;20494;-65
2021/01/01 00:51:14;;;;;;;68.60;40.92;;;;;;;-140.05;100.00;61859.38;5030781;28;20205;-66
2021/01/01 00:53:44;;;;;;;70.38;41.47;;;;;;;-140.05;100.00;61859.38;5029309;28;20225;-63
2021/01/01 00:56:18;;;;;;;72.75;41.28;;;;;;;-140.05;100.00;61859.38;5028120;28;20202;-61
2021/01/01 00:58:45;;;;;;;71.63;41.97;;;;;;;-140.05;100.00;61859.38;5029925;28;20196;-65
2021/01/01 01:01:11;;;;;;;69.43;39.15;;;;;;;-140.05;100.00;61859.38;5030489;28;20193;-65
2021/01/01 01:03:37;;;;;;;64.43;38.70;;;;;;;-140.05;100.00;61859.38;5045460;28;20599;-64
2021/01/01 01:06:04;;;;;;;64.55;39.53;;;;;;;-140.05;100.00;61859.38;5030201;28;20251;-67
2021/01/01 01:08:30;;;;;;;69.72;41.30;;;;;;;-140.05;100.00;61859.38;5032593;28;20662;-64
2021/01/01 01:10:57;;;;;;;68.00;39.97;;;;;;;-140.05;100.00;61859.38;5035897;28;20691;-67
2021/01/01 01:13:23;;;;;;;65.57;39.93;;;;;;;-140.05;100.00;61859.38;5029845;28;20503;-64
2021/01/01 01:15:50;;;;;;;65.15;38.85;;;;;;;-140.05;100.00;61859.38;5029393;28;20440;-65
2021/01/01 01:18:16;;;;;;;65.07;39.43;;;;;;;-140.05;100.00;61859.38;5029683;28;20193;-67
2021/01/01 01:20:43;;;;;;;65.45;38.47;;;;;;;-140.05;100.00;61859.38;5028675;28;20622;-64
2021/01/01 01:23:09;;;;;;;67.80;38.85;;;;;;;-140.05;100.00;61859.38;5029007;28;20199;-64
2021/01/01 01:25:35;;;;;;;71.65;42.13;;;;;;;-140.05;100.00;61859.38;5028900;28;20216;-66
2021/01/01 01:28:02;;;;;;;74.25;42.97;;;;;;;-140.05;100.00;61859.38;5029393;28;20269;-63
2021/01/01 01:30:28;;;;;;;76.63;44.88;;;;;;;-140.05;100.00;61859.38;5028863;28;20197;-64
2021/01/01 01:32:55;;;;;;;71.13;40.95;;;;;;;-140.05;100.00;61859.38;5029187;28;20213;-63
2021/01/01 01:35:22;;;;;;;72.53;44.30;;;;;;;-140.05;100.00;61859.38;5028880;28;20225;-65
2021/01/01 01:37:49;;;;;;;78.32;43.35;;;;;;;-140.05;100.00;61859.38;5029204;28;20189;-66
2021/01/01 01:40:15;;;;;;;66.53;41.00;;;;;;;-140.05;100.00;61859.38;5029670;28;20209;-66
2021/01/01 01:42:42;;;;;;;69.55;41.78;;;;;;;-140.05;100.00;61859.38;5030041;28;20204;-63
2021/01/01 01:45:09;;;;;;;69.13;40.90;;;;;;;-140.05;100.00;61859.38;5029893;28;20664;-66
2021/01/01 01:47:37;;;;;;;69.75;40.97;;;;;;;-140.05;100.00;61859.38;5030199;28;20701;-65
2021/01/01 01:50:05;;;;;;;73.20;41.20;;;;;;;-140.05;100.00;61859.38;5029398;28;20216;-64
2021/01/01 01:52:34;;;;;;;70.22;41.95;;;;;;;-140.05;100.00;61859.38;5030998;28;20204;-67
2021/01/01 01:55:01;;;;;;;70.50;40.58;;;;;;;-140.05;100.00;61859.38;5030492;28;20205;-64
2021/01/01 01:57:31;;;;;;;60.22;33.95;;;;;;;-140.05;100.00;61859.38;5031612;28;20197;-64
2021/01/01 02:02:55;;;;;;;59.88;35.45;;;;;;;-140.05;100.00;61859.38;5027794;28;20986;-65
2021/01/01 02:05:24;;;;;;;60.08;34.92;;;;;;;-140.05;100.00;61859.38;5029104;28;20221;-62
2021/01/01 02:07:50;;;;;;;60.38;34.17;;;;;;;-140.05;100.00;61859.38;5029504;28;20197;-64
2021/01/01 02:10:19;;;;;;;59.67;34.03;;;;;;;-140.05;100.00;61859.38;5029305;28;20219;-62
2021/01/01 02:12:48;;;;;;;55.67;31.50;;;;;;;-140.05;100.00;61859.38;5030193;28;20236;-64
2021/01/01 02:15:16;;;;;;;54.35;30.63;;;;;;;-140.05;100.00;61859.38;5029726;28;20186;-65
2021/01/01 02:17:43;;;;;;;56.00;34.22;;;;;;;-140.05;100.00;61859.38;5029194;28;20190;-64
2021/01/01 02:20:11;;;;;;;49.45;29.23;;;;;;;-140.05;100.00;61859.38;5028805;28;20228;-61
2021/01/01 02:22:38;;;;;;;44.67;23.83;;;;;;;-140.05;100.00;61859.38;5028994;28;20762;-62
2021/01/01 02:25:06;;;;;;;44.03;23.10;;;;;;;-140.05;100.00;61859.38;5028851;28;20209;-64
2021/01/01 02:27:33;;;;;;;38.53;21.70;;;;;;;-140.05;100.00;61859.38;5029275;28;20224;-63
2021/01/01 02:30:14;;;;;;;43.30;22.85;;;;;;;-140.05;100.00;61859.38;5028928;28;20208;-65
2021/01/01 02:32:41;;;;;;;36.17;20.45;;;;;;;-140.05;100.00;61859.38;5029549;28;20296;-64
2021/01/01 02:35:08;;;;;;;42.25;21.02;;;;;;;-140.05;100.00;61859.38;5028523;28;20224;-64
2021/01/01 02:37:35;;;;;;;38.50;22.05;;;;;;;-140.05;100.00;61859.38;5029307;28;20284;-65
2021/01/01 02:40:06;;;;;;;37.58;22.05;;;;;;;-140.05;100.00;61859.38;5028852;28;20274;-61
2021/01/01 02:42:34;;;;;;;37.53;20.42;;;;;;;-140.05;100.00;61859.38;5028294;28;20244;-62
2021/01/01 02:45:02;;;;;;;34.85;18.65;;;;;;;-140.05;100.00;61859.38;5028572;28;20299;-65
2021/01/01 02:47:30;;;;;;;33.60;19.77;;;;;;;-140.05;100.00;61859.38;5034716;28;20482;-64
2021/01/01 02:49:56;;;;;;;32.47;19.50;;;;;;;-140.05;100.00;61859.38;5029076;28;20288;-62
2021/01/01 02:52:23;;;;;;;33.30;19.02;;;;;;;-140.05;100.00;61859.38;5028315;28;20201;-65
2021/01/01 02:54:49;;;;;;;32.67;18.95;;;;;;;-140.05;100.00;61859.38;5028106;28;20715;-67
2021/01/01 02:57:15;;;;;;;29.55;17.77;;;;;;;-140.05;100.00;61859.38;5029478;28;20204;-65
2021/01/01 02:59:42;;;;;;;31.45;18.52;;;;;;;-140.05;100.00;61859.38;5028268;28;20307;-62
2021/01/01 03:02:09;;;;;;;36.08;19.15;;;;;;;-140.05;100.00;61859.38;5029355;28;20213;-63
2021/01/01 03:04:35;;;;;;;31.02;17.40;;;;;;;-140.05;100.00;61859.38;5028139;28;20703;-65
2021/01/01 03:07:02;;;;;;;27.63;17.02;;;;;;;-140.05;100.00;61859.38;5028561;28;20185;-62
2021/01/01 03:09:28;;;;;;;32.17;19.02;;;;;;;-140.05;100.00;61859.38;5028782;28;20196;-64
2021/01/01 03:11:54;;;;;;;29.95;17.90;;;;;;;-140.05;100.00;61859.38;5029164;28;20698;-64
2021/01/01 03:14:21;;;;;;;35.78;18.70;;;;;;;-140.05;100.00;61859.38;5032061;28;20240;-66
2021/01/01 03:16:47;;;;;;;34.70;19.08;;;;;;;-140.05;100.00;61859.38;5033231;28;20199;-62
2021/01/01 03:19:14;;;;;;;31.92;17.35;;;;;;;-140.05;100.00;61859.38;5032749;28;20971;-61
2021/01/01 03:21:41;;;;;;;34.13;18.05;;;;;;;-140.05;100.00;61859.38;5032618;28;20197;-62
2021/01/01 03:24:07;;;;;;;36.47;17.90;;;;;;;-140.05;100.00;61859.38;5032491;28;20227;-63
2021/01/01 03:26:34;;;;;;;30.00;17.52;;;;;;;-140.05;100.00;61859.38;5032703;28;20619;-64
2021/01/01 03:29:00;;;;;;;29.13;16.42;;;;;;;-140.05;100.00;61859.38;5032442;28;20197;-64
2021/01/01 03:31:27;;;;;;;27.17;16.10;;;;;;;-140.05;100.00;61859.38;5032638;28;20579;-62
2021/01/01 03:33:53;;;;;;;34.28;16.77;;;;;;;-140.05;100.00;61859.38;5031674;28;20220;-64
2021/01/01 03:36:20;;;;;;;28.58;15.77;;;;;;;-140.05;100.00;61859.38;5032005;28;20231;-66
2021/01/01 03:38:46;;;;;;;31.08;16.40;;;;;;;-140.05;100.00;61859.38;5031905;28;20213;-65
2021/01/01 03:41:13;;;;;;;26.63;15.82;;;;;;;-140.05;100.00;61859.38;5032687;28;20212;-64
2021/01/01 03:43:40;;;;;;;28.45;16.27;;;;;;;-140.05;100.00;61859.38;5031726;28;20204;-66
2021/01/01 03:46:07;;;;;;;32.20;15.75;;;;;;;-140.05;100.00;61859.38;5031712;28;20211;-66
2021/01/01 03:48:34;;;;;;;31.65;15.75;;;;;;;-140.05;100.00;61859.38;5032380;28;20714;-61
2021/01/01 03:51:00;;;;;;;26.08;14.75;;;;;;;-140.05;100.00;61859.38;5031406;28;20212;-69
2021/01/01 03:53:27;;;;;;;39.47;22.63;;;;;;;-140.05;100.00;61859.38;5031923;28;20645;-62
2021/01/01 03:55:53;;;;;;;32.20;18.45;;;;;;;-140.05;100.00;61859.38;5031679;28;20200;-63
2021/01/01 03:58:19;;;;;;;33.97;19.25;;;;;;;-140.05;100.00;61859.38;5032349;28;20209;-64
2021/01/01 04:00:46;;;;;;;29.00;17.73;;;;;;;-140.05;100.00;61859.38;5031436;28;20181;-62
2021/01/01 04:03:12;;;;;;;24.25;13.68;;;;;;;-140.05;100.00;61859.38;5031845;28;20189;-65
2021/01/01 04:05:39;;;;;;;25.73;14.18;;;;;;;-140.05;100.00;61859.38;5031023;28;20208;-65
2021/01/01 04:08:06;;;;;;;28.92;15.55;;;;;;;-140.05;100.00;61859.38;5031895;28;20203;-64
2021/01/01 04:10:32;;;;;;;28.38;15.98;;;;;;;-140.05;100.00;61859.38;5031426;28;20201;-63
2021/01/01 04:12:58;;;;;;;31.17;17.45;;;;;;;-140.05;100.00;61859.38;5031342;28;20343;-65
2021/01/01 04:15:25;;;;;;;30.38;15.85;;;;;;;-140.05;100.00;61859.38;5031174;28;20316;-66
2021/01/01 04:17:51;;;;;;;29.50;14.35;;;;;;;-140.05;100.00;61859.38;5032079;28;20220;-64
2021/01/01 04:20:18;;;;;;;27.40;14.98;;;;;;;-140.05;100.00;61859.38;5030370;28;20190;-63
2021/01/01 04:22:44;;;;;;;26.42;15.35;;;;;;;-140.05;100.00;61859.38;5033300;28;20213;-63
2021/01/01 04:25:11;;;;;;;28.55;17.38;;;;;;;-140.05;100.00;61859.38;5030489;28;20320;-63
2021/01/01 04:27:38;;;;;;;29.33;16.85;;;;;;;-140.05;100.00;61859.38;5031567;28;20193;-61
2021/01/01 04:30:06;;;;;;;34.25;17.77;;;;;;;-140.05;100.00;61859.38;5030734;28;20293;-62
2021/01/01 04:32:33;;;;;;;30.55;15.77;;;;;;;-140.05;100.00;61859.38;5031502;28;20276;-62
2021/01/01 04:35:00;;;;;;;33.10;17.60;;;;;;;-140.05;100.00;61859.38;5030155;28;20247;-62
2021/01/01 04:37:26;;;;;;;30.40;16.48;;;;;;;-140.05;100.00;61859.38;5031268;28;20189;-66
2021/01/01 04:39:52;;;;;;;28.48;15.93;;;;;;;-140.05;100.00;61859.38;5030894;28;20248;-65
2021/01/01 04:42:21;;;;;;;29.35;16.05;;;;;;;-140.05;100.00;61859.38;5031065;28;20201;-64
2021/01/01 04:44:48;;;;;;;30.48;15.85;;;;;;;-140.05;100.00;61859.38;5030489;28;20195;-63
2021/01/01 04:47:19;;;;;;;28.10;16.42;;;;;;;-140.05;100.00;61859.38;5031190;28;20205;-62
2021/01/01 04:49:46;;;;;;;31.08;16.90;;;;;;;-140.05;100.00;61859.38;5030244;28;20216;-64
2021/01/01 04:52:16;;;;;;;35.08;16.98;;;;;;;-140.05;100.00;61859.38;5031109;28;20204;-64
2021/01/01 04:54:44;;;;;;;30.20;17.52;;;;;;;-140.05;100.00;61859.38;5030519;28;20668;-64
2021/01/01 04:57:12;;;;;;;35.63;17.80;;;;;;;-140.05;100.00;61859.38;5030999;28;20690;-66
2021/01/01 04:59:38;;;;;;;36.40;18.48;;;;;;;-140.05;100.00;61859.38;5029740;28;20200;-64
2021/01/01 05:02:04;;;;;;;30.40;17.02;;;;;;;-140.05;100.00;61859.38;5030934;28;20207;-64
2021/01/01 05:04:31;;;;;;;33.00;18.27;;;;;;;-140.05;100.00;61859.38;5030110;28;20565;-65
2021/01/01 05:06:59;;;;;;;36.95;18.67;;;;;;;-140.05;100.00;61859.38;5031510;28;20203;-65
2021/01/01 05:09:25;;;;;;;31.02;18.50;;;;;;;-140.05;100.00;61859.38;5030577;28;20193;-63
2021/01/01 05:12:08;;;;;;;36.90;19.38;;;;;;;-140.05;100.00;61859.38;5031451;28;20227;-63
2021/01/01 05:14:36;;;;;;;47.60;23.20;;;;;;;-140.05;100.00;61859.38;5029981;28;20894;-62
2021/01/01 05:17:03;;;;;;;64.13;32.05;;;;;;;-140.05;100.00;61859.38;5030442;28;20197;-64
2021/01/01 05:19:40;;;;;;;85.25;40.95;;;;;;;-140.05;100.00;61859.38;5029839;28;20303;-64
2021/01/01 05:22:10;;;;;;;115.55;51.63;;;;;;;-140.05;100.00;61859.38;5030721;28;20220;-64
2021/01/01 05:24:42;;;;;;;79.60;41.20;;;;;;;-140.05;100.00;61859.38;5030100;28;20198;-62
2021/01/01 05:27:17;;;;;;;81.78;39.08;;;;;;;-140.05;100.00;61859.38;5030276;28;20181;-65
2021/01/01 05:29:50;;;;;;;79.68;39.90;;;;;;;-140.05;100.00;61859.38;5029621;28;20727;-63
2021/01/01 05:32:24;;;;;;;67.47;34.75;;;;;;;-140.05;100.00;61859.38;5030325;28;20691;-62
2021/01/01 05:34:52;;;;;;;68.13;34.53;;;;;;;-140.05;100.00;61859.38;5028777;28;20240;-66
2021/01/01 05:37:27;;;;;;;85.50;42.30;;;;;;;-140.05;100.00;61859.38;5030231;28;20215;-63
2021/01/01 05:40:09;;;;;;;119.57;59.97;;;;;;;-140.05;100.00;61859.38;5029512;28;20303;-64
2021/01/01 05:42:36;;;;;;;138.50;68.45;;;;;;;-140.05;100.00;61859.38;5030450;28;20271;-64
2021/01/01 05:45:20;;;;;;;116.82;56.28;;;;;;;-140.05;100.00;61859.38;5029160;28;20634;-64
2021/01/01 05:48:06;;;;;;;99.40;49.00;;;;;;;-140.05;100.00;61859.38;5029501;28;20216;-63
2021/01/01 05:50:34;;;;;;;112.20;51.08;;;;;;;-140.05;100.00;61859.38;5029267;28;20197;-64
2021/01/01 05:53:14;;;;;;;108.60;55.15;;;;;;;-140.05;100.00;61859.38;5029771;28;20193;-64
2021/01/01 05:55:42;;;;;;;114.68;55.33;;;;;;;-140.05;100.00;61859.38;5029731;28;20213;-64
2021/01/01 05:58:24;;;;;;;110.95;54.17;;;;;;;-140.05;100.00;61859.38;5034047;28;20774;-61
2021/01/01 06:00:56;;;;;;;104.32;50.00;;;;;;;-140.05;100.00;61859.38;5029308;28;20291;-64
2021/01/01 06:03:34;;;;;;;97.13;50.92;;;;;;;-140.05;100.00;61859.38;5029959;28;20215;-67
2021/01/01 06:06:04;;;;;;;102.85;53.88;;;;;;;-140.05;100.00;61859.38;5028733;28;20209;-62
2021/01/01 06:08:32;;;;;;;97.43;51.25;;;;;;;-140.05;100.00;61859.38;5027378;28;20203;-67
2021/01/01 06:11:02;;;;;;;138.20;73.07;;;;;;;-140.05;100.00;61859.38;5027754;28;20294;-65
2021/01/01 06:13:35;;;;;;;148.82;71.72;;;;;;;-140.05;100.00;61859.38;5029519;28;20564;-65
2021/01/01 06:16:04;;;;;;;147.75;75.03;;;;;;;-140.05;100.00;61859.38;5028925;28;20355;-66
2021/01/01 06:18:33;;;;;;;144.88;72.97;;;;;;;-140.05;100.00;61859.38;5029281;28;20785;-66
2021/01/01 06:21:07;;;;;;;129.45;66.53;;;;;;;-140.05;100.00;61859.38;5028950;28;20292;-62
2021/01/01 06:23:35;;;;;;;133.65;67.45;;;;;;;-140.05;100.00;61859.38;5029677;28;20565;-67
2021/01/01 06:26:04;;;;;;;132.20;67.15;;;;;;;-140.05;100.00;61859.38;5028786;28;20667;-66
2021/01/01 06:28:35;;;;;;;135.63;66.47;;;;;;;-140.05;100.00;61859.38;5029179;28;20202;-66
2021/01/01 06:31:04;;;;;;;127.28;64.95;;;;;;;-140.05;100.00;61859.38;5028526;28;20201;-64
2021/01/01 06:33:32;;;;;;;119.95;62.33;;;;;;;-140.05;100.00;61859.38;5029447;28;20596;-64
2021/01/01 06:35:59;;;;;;;117.13;61.10;;;;;;;-140.05;100.00;61859.38;5028523;28;20328;-64
2021/01/01 06:38:39;;;;;;;118.47;62.22;;;;;;;-140.05;100.00;61859.38;5028949;28;20200;-65
2021/01/01 06:41:14;;;;;;;123.07;64.00;;;;;;;-140.05;100.00;61859.38;5029196;28;20251;-64
2021/01/01 06:43:51;;;;;;;116.05;60.05;;;;;;;-140.05;100.00;61859.38;5029311;28;20199;-63
2021/01/01 06:46:37;;;;;;;106.78;56.90;;;;;;;-140.05;100.00;61859.38;5028821;28;20277;-62
2021/01/01 06:49:06;;;;;;;104.45;56.65;;;;;;;-140.05;100.00;61859.38;5028273;28;21068;-62
2021/01/01 06:51:32;;;;;;;109.55;58.13;;;;;;;-140.05;100.00;61859.38;5029028;28;20197;-63
2021/01/01 06:54:14;;;;;;;100.97;53.03;;;;;;;-140.05;100.00;61859.38;5028247;28;20221;-65
2021/01/01 06:56:44;;;;;;;83.70;45.33;;;;;;;-140.05;100.00;61859.38;5029172;28;20193;-62
2021/01/01 06:59:14;;;;;;;79.50;43.90;;;;;;;-140.05;100.00;61859.38;5028505;28;20193;-63
2021/01/01 07:01:46;;;;;;;79.38;44.08;;;;;;;-140.05;100.00;61859.38;5028938;28;20206;-62
2021/01/01 07:04:13;;;;;;;84.25;47.10;;;;;;;-140.05;100.00;61859.38;5028350;28;20224;-62
2021/01/01 07:06:42;;;;;;;84.72;46.42;;;;;;;-140.05;100.00;61859.38;5028787;28;20630;-63
2021/01/01 07:09:10;;;;;;;86.57;46.60;;;;;;;-140.05;100.00;61859.38;5027840;28;20207;-63
2021/01/01 07:11:38;;;;;;;84.57;46.90;;;;;;;-140.05;100.00;61859.38;5029056;28;20323;-62
2021/01/01 07:14:09;;;;;;;80.32;45.28;;;;;;;-140.05;100.00;61859.38;5027986;28;20221;-63
2021/01/01 07:16:41;;;;;;;82.20;44.83;;;;;;;-140.05;100.00;61859.38;5028717;28;20200;-64
2021/01/01 07:19:08;;;;;;;77.28;44.42;;;;;;;-140.05;100.00;61859.38;5027648;28;20209;-64
2021/01/01 07:21:35;;;;;;;80.07;44.05;;;;;;;-140.05;100.00;61859.38;5028605;28;20189;-63
2021/01/01 07:24:20;;;;;;;75.93;41.63;;;;;;;-140.05;100.00;61859.38;5028159;28;20694;-64
2021/01/01 07:26:46;;;;;;;72.55;39.00;;;;;;;-140.05;100.00;61859.38;5028933;28;20224;-62
2021/01/01 07:29:12;;;;;;;66.40;37.88;;;;;;;-140.05;100.00;61859.38;5027923;28;20769;-63
2021/01/01 07:31:39;;;;;;;60.03;35.72;;;;;;;-140.05;100.00;61859.38;5031949;28;20213;-62
2021/01/01 07:34:10;;;;;;;48.30;28.67;;;;;;;-140.05;100.00;61859.38;5027710;28;20347;-65
2021/01/01 07:36:37;;;;;;;44.72;26.02;;;;;;;-140.05;100.00;61859.38;5028682;28;20216;-65
2021/01/01 07:39:06;;;;;;;35.67;20.25;;;;;;;-140.05;100.00;61859.38;5028255;28;20193;-63
2021/01/01 07:41:33;;;;;;;28.25;16.45;;;;;;;-140.05;100.00;61859.38;5028380;28;20513;-61
2021/01/01 07:43:59;;;;;;;28.33;16.80;;;;;;;-140.05;100.00;61859.38;5027507;28;20240;-66
2021/01/01 07:46:29;;;;;;;48.28;28.10;;;;;;;-140.05;100.00;61859.38;5028710;28;20811;-64
2021/01/01 07:48:55;;;;;;;66.03;38.30;;;;;;;-140.05;100.00;61859.38;5027393;28;20194;-66
2021/01/01 07:51:23;;;;;;;68.57;37.10;;;;;;;-140.05;100.00;61859.38;5028261;28;20231;-64
2021/01/01 07:53:49;;;;;;;50.35;29.25;;;;;;;-140.05;100.00;61859.38;5027970;28;20472;-65
2021/01/01 07:56:16;;;;;;;48.40;29.73;;;;;;;-140.05;100.00;61859.38;5028465;28;20611;-64
2021/01/01 07:58:43;;;;;;;58.67;35.07;;;;;;;-140.05;100.00;61859.38;5027192;28;20455;-67
2021/01/01 08:01:12;;;;;;;60.13;38.13;;;;;;;-140.05;100.00;61859.38;5031895;28;20507;-65
2021/01/01 08:03:39;;;;;;;53.17;31.93;;;;;;;-140.05;100.00;61859.38;5031518;28;20527;-63
2021/01/01 08:06:09;;;;;;;47.40;28.55;;;;;;;-140.05;100.00;61859.38;5031312;28;20509;-65
2021/01/01 08:08:37;;;;;;;53.87;31.57;;;;;;;-140.05;100.00;61859.38;5031472;28;20941;-63
2021/01/01 08:11:06;;;;;;;53.43;31.30;;;;;;;-140.05;100.00;61859.38;5031688;28;20590;-65
2021/01/01 08:13:34;;;;;;;47.10;28.67;;;;;;;-140.05;100.00;61859.38;5031753;28;21024;-67
2021/01/01 08:16:29;;;;;;;40.87;25.20;;;;;;;-140.05;100.00;61859.38;5021286;28;20874;-62
2021/01/01 08:18:56;;;;;;;38.77;24.10;;;;;;;-140.05;100.00;61859.38;5010370;28;20456;-68
2021/01/01 08:21:22;;;;;;;41.63;23.93;;;;;;;-140.05;100.00;61859.38;5011879;28;20519;-67
2021/01/01 08:24:09;;;;;;;38.33;21.93;;;;;;;-140.05;100.00;61859.38;5011345;28;20448;-67
2021/01/01 08:26:37;;;;;;;26.40;16.30;;;;;;;-140.05;100.00;61859.38;5011408;28;20444;-63
2021/01/01 08:29:08;;;;;;;25.90;14.90;;;;;;;-140.05;100.00;61859.38;5011067;28;20939;-64
2021/01/01 08:31:37;;;;;;;25.47;16.23;;;;;;;-140.05;100.00;61859.38;5016987;28;20467;-66
2021/01/01 08:34:05;;;;;;;25.77;15.43;;;;;;;-140.05;100.00;61859.38;5038235;28;20519;-65
2021/01/01 08:36:34;;;;;;;24.77;15.03;;;;;;;-140.05;100.00;61859.38;5032192;28;20459;-65
2021/01/01 08:39:11;;;;;;;23.70;13.87;;;;;;;-140.05;100.00;61859.38;5050412;28;20588;-68
2021/01/01 08:41:47;;;;;;;21.67;13.53;;;;;;;-140.05;100.00;61859.38;5038045;28;20451;-63
2021/01/01 08:44:16;;;;;;;23.00;13.03;;;;;;;-140.05;100.00;61859.38;5030217;28;20440;-63
2021/01/01 08:46:43;;;;;;;22.77;13.60;;;;;;;-140.05;100.00;61859.38;5030648;28;20942;-66
2021/01/01 08:49:15;;;;;;;17.90;11.33;;;;;;;-140.05;100.00;61859.38;5035091;28;20539;-67
2021/01/01 08:51:41;;;;;;;15.67;9.77;;;;;;;-140.05;100.00;61859.38;5050864;28;20898;-66
2021/01/01 08:54:09;;;;;;;13.17;8.03;;;;;;;-140.05;100.00;61859.38;5050843;28;20841;-64
2021/01/01 08:56:37;;;;;;;14.03;8.13;;;;;;;-140.05;100.00;61859.38;5048203;28;20531;-65
2021/01/01 08:59:09;;;;;;;14.73;8.57;;;;;;;-140.05;100.00;61859.38;5030154;28;20475;-65
2021/01/01 09:01:36;;;;;;;15.70;8.73;;;;;;;-140.05;100.00;61859.38;5030087;28;20440;-71
2021/01/01 09:04:03;;;;;;;14.20;8.33;;;;;;;-140.05;100.00;61859.38;5030508;28;20428;-66
2021/01/01 09:06:30;;;;;;;13.67;8.43;;;;;;;-140.05;100.00;61859.38;5031258;28;20444;-64
2021/01/01 09:09:05;;;;;;;12.77;8.50;;;;;;;-140.05;100.00;61859.38;5029495;28;20479;-65
2021/01/01 09:11:32;;;;;;;13.70;8.57;;;;;;;-140.05;100.00;61859.38;5026923;28;20428;-68
2021/01/01 09:14:02;;;;;;;16.70;9.57;;;;;;;-140.05;100.00;61859.38;5029564;28;20464;-64
2021/01/01 09:16:47;;;;;;;17.73;10.93;;;;;;;-140.05;100.00;61859.38;5028593;28;21001;-66
2021/01/01 09:19:14;;;;;;;19.37;12.27;;;;;;;-140.05;100.00;61859.38;5028444;28;20436;-66
2021/01/01 09:21:41;;;;;;;20.27;11.90;;;;;;;-140.05;100.00;61859.38;5030280;28;20447;-69
2021/01/01 09:24:07;;;;;;;18.23;12.00;;;;;;;-140.05;100.00;61859.38;5028730;28;20428;-66
2021/01/01 09:26:37;;;;;;;19.43;10.27;;;;;;;-140.05;100.00;61859.38;5031317;28;20891;-65
2021/01/01 09:29:08;;;;;;;17.67;11.63;;;;;;;-140.05;100.00;61859.38;5028205;28;20447;-67
2021/01/01 09:31:37;;;;;;;18.83;10.50;;;;;;;-140.05;100.00;61859.38;5026738;28;20454;-64
2021/01/01 09:34:08;;;;;;;15.33;9.90;;;;;;;-140.05;100.00;61859.38;5027804;28;20502;-66
2021/01/01 09:36:36;;;;;;;16.77;9.97;;;;;;;-140.05;100.00;61859.38;5027261;28;20498;-68
2021/01/01 09:39:07;;;;;;;16.53;9.93;;;;;;;-140.05;100.00;61859.38;5028414;28;20454;-64
2021/01/01 09:41:35;;;;;;;16.73;10.10;;;;;;;-140.05;100.00;61859.38;5029313;28;20444;-62
2021/01/01 09:44:02;;;;;;;17.87;10.30;;;;;;;-140.05;100.00;61859.38;5028009;28;20551;-67
2021/01/01 09:46:28;;;;;;;16.00;10.10;;;;;;;-140.05;100.00;61859.38;5028084;28;21045;-66
2021/01/01 09:48:55;;;;;;;18.37;10.30;;;;;;;-140.05;100.00;61859.38;5029098;28;20440;-63
2021/01/01 09:51:21;;;;;;;16.73;9.13;;;;;;;-140.05;100.00;61859.38;5030071;28;20443;-69
2021/01/01 09:53:48;;;;;;;14.67;9.63;;;;;;;-140.05;100.00;61859.38;5030262;28;20477;-67
2021/01/01 09:56:14;;;;;;;14.40;8.23;;;;;;;-140.05;100.00;61859.38;5029567;28;20455;-70
2021/01/01 09:58:41;;;;;;;16.67;9.27;;;;;;;-140.05;100.00;61859.38;5029788;28;20434;-61
2021/01/01 10:01:09;;;;;;;19.63;11.70;;;;;;;-140.05;100.00;61859.38;5029141;28;20478;-64
2021/01/01 10:03:35;;;;;;;18.00;12.13;;;;;;;-140.05;100.00;61859.38;5027708;28;20467;-62
2021/01/01 10:06:02;;;;;;;33.60;20.93;;;;;;;-140.05;100.00;61859.38;5027915;28;20523;-63
2021/01/01 10:08:28;;;;;;;33.37;21.47;;;;;;;-140.05;100.00;61859.38;5028213;28;20444;-65
2021/01/01 10:10:56;;;;;;;30.80;20.17;;;;;;;-140.05;100.00;61859.38;5027193;28;20428;-62
2021/01/01 10:13:23;;;;;;;25.93;17.10;;;;;;;-140.05;100.00;61859.38;5028000;28;20495;-63
2021/01/01 10:15:49;;;;;;;30.40;20.63;;;;;;;-140.05;100.00;61859.38;5027366;28;20945;-75
2021/01/01 10:18:16;;;;;;;44.43;32.70;;;;;;;-140.05;100.00;61859.38;5025480;28;20440;-70
2021/01/01 10:20:42;;;;;;;89.47;70.30;;;;;;;-140.05;100.00;61859.38;5027364;28;20463;-66
2021/01/01 10:23:09;;;;;;;25.40;15.97;;;;;;;-140.05;100.00;61859.38;5026859;28;20455;-62
2021/01/01 10:25:35;;;;;;;19.90;13.23;;;;;;;-140.05;100.00;61859.38;5028128;28;20463;-61
2021/01/01 10:28:02;;;;;;;22.00;13.67;;;;;;;-140.05;100.00;61859.38;5028108;28;20542;-65
2021/01/01 10:30:29;;;;;;;27.27;16.03;;;;;;;-140.05;100.00;61859.38;5027478;28;20451;-66
2021/01/01 10:32:55;;;;;;;21.40;13.60;;;;;;;-140.05;100.00;61859.38;5027467;28;20534;-64
2021/01/01 10:35:22;;;;;;;19.97;13.03;;;;;;;-140.05;100.00;61859.38;5027284;28;20552;-68
2021/01/01 10:37:51;;;;;;;27.87;18.80;;;;;;;-140.05;100.00;61859.38;5027889;28;20536;-63
2021/01/01 10:40:19;;;;;;;150.87;122.23;;;;;;;-140.05;100.00;61859.38;5026202;28;20847;-64
2021/01/01 10:42:47;;;;;;;37.73;27.47;;;;;;;-140.05;100.00;61859.38;5028325;28;20444;-63
2021/01/01 10:45:27;;;;;;;20.17;11.80;;;;;;;-140.05;100.00;61859.38;5025939;28;20487;-61
2021/01/01 10:47:54;;;;;;;18.83;12.00;;;;;;;-140.05;100.00;61859.38;5026689;28;20448;-64
2021/01/01 10:50:20;;;;;;;18.17;11.87;;;;;;;-140.05;100.00;61859.38;5027643;28;20439;-68
2021/01/01 10:52:47;;;;;;;20.30;11.77;;;;;;;-140.05;100.00;61859.38;5026863;28;20984;-61
2021/01/01 10:55:13;;;;;;;21.57;12.03;;;;;;;-140.05;100.00;61859.38;5027264;28;20460;-64
2021/01/01 10:57:40;;;;;;;23.80;12.40;;;;;;;-140.05;100.00;61859.38;5027206;28;20531;-64
2021/01/01 11:00:07;;;;;;;15.97;10.37;;;;;;;-140.05;100.00;61859.38;5026711;28;21215;-63
2021/01/01 11:02:33;;;;;;;22.03;16.23;;;;;;;-140.05;100.00;61859.38;5026761;28;20443;-63
2021/01/01 11:05:00;;;;;;;88.23;65.23;;;;;;;-140.05;100.00;61859.38;5026964;28;20515;-63